createdAt,value
2023-03-01T00:00:49.132Z,-0.40
2023-03-01T00:01:49.211Z,-0.42
2023-03-01T00:02:49.109Z,-0.46
2023-03-01T00:03:49.246Z,-0.47
2023-03-01T00:04:49.083Z,-0.53
2023-03-01T00:05:49.065Z,-0.60
2023-03-01T00:06:49.077Z,-0.63
2023-03-01T00:07:49.045Z,-0.66
2023-03-01T00:08:49.046Z,-0.64
2023-03-01T00:09:49.029Z,-0.64
2023-03-01T00:10:49.046Z,-0.64
2023-03-01T00:11:49.003Z,-0.63
2023-03-01T00:12:48.991Z,-0.61
2023-03-01T00:13:49.029Z,-0.63
2023-03-01T00:14:48.971Z,-0.63
2023-03-01T00:15:48.954Z,-0.61
2023-03-01T00:16:49.006Z,-0.63
2023-03-01T00:17:48.919Z,-0.63
2023-03-01T00:18:48.917Z,-0.63
2023-03-01T00:19:48.894Z,-0.61
2023-03-01T00:20:48.895Z,-0.63
2023-03-01T00:21:48.893Z,-0.63
2023-03-01T00:22:48.868Z,-0.63
2023-03-01T00:23:48.853Z,-0.64
2023-03-01T00:24:48.833Z,-0.61
2023-03-01T00:25:48.818Z,-0.60
2023-03-01T00:26:48.837Z,-0.53
2023-03-01T00:27:48.803Z,-0.52
2023-03-01T00:28:48.801Z,-0.52
2023-03-01T00:29:48.770Z,-0.52
2023-03-01T00:30:48.824Z,-0.55
2023-03-01T00:31:48.863Z,-0.53
2023-03-01T00:32:48.750Z,-0.53
2023-03-01T00:33:48.755Z,-0.55
2023-03-01T00:34:48.710Z,-0.55
2023-03-01T00:35:48.865Z,-0.55
2023-03-01T00:36:48.706Z,-0.60
2023-03-01T00:37:48.671Z,-0.58
2023-03-01T00:38:48.672Z,-0.61
2023-03-01T00:39:48.707Z,-0.61
2023-03-01T00:40:48.634Z,-0.66
2023-03-01T00:41:48.639Z,-0.68
2023-03-01T00:42:48.611Z,-0.73
2023-03-01T00:43:48.599Z,-0.76
2023-03-01T00:44:48.586Z,-0.79
2023-03-01T00:45:48.640Z,-0.84
2023-03-01T00:46:48.585Z,-0.89
2023-03-01T00:47:48.558Z,-0.95
2023-03-01T00:48:48.543Z,-0.98
2023-03-01T00:49:48.521Z,-0.97
2023-03-01T00:50:48.516Z,-1.01
2023-03-01T00:51:48.505Z,-0.98
2023-03-01T00:52:48.503Z,-0.97
2023-03-01T00:53:48.483Z,-0.94
2023-03-01T00:54:48.465Z,-0.90
2023-03-01T00:55:48.455Z,-0.85
2023-03-01T00:56:48.453Z,-0.86
2023-03-01T00:57:48.439Z,-0.94
2023-03-01T00:58:48.417Z,-0.94
2023-03-01T00:59:48.400Z,-0.94
2023-03-01T01:00:48.397Z,-1.01
2023-03-01T01:01:48.479Z,-1.04
2023-03-01T01:02:48.543Z,-1.07
2023-03-01T01:03:48.370Z,-1.08
2023-03-01T01:04:48.342Z,-1.13
2023-03-01T01:05:48.344Z,-1.19
2023-03-01T01:06:48.343Z,-1.23
2023-03-01T01:07:48.324Z,-1.21
2023-03-01T01:08:48.293Z,-1.23
2023-03-01T01:09:48.289Z,-1.26
2023-03-01T01:10:48.276Z,-1.22
2023-03-01T01:11:48.279Z,-1.19
2023-03-01T01:12:48.248Z,-1.19
2023-03-01T01:13:48.230Z,-1.19
2023-03-01T01:14:48.242Z,-1.19
2023-03-01T01:15:48.232Z,-1.18
2023-03-01T01:16:48.251Z,-1.21
2023-03-01T01:17:48.191Z,-1.22
2023-03-01T01:18:48.174Z,-1.25
2023-03-01T01:19:48.157Z,-1.33
2023-03-01T01:20:48.159Z,-1.40
2023-03-01T01:21:48.151Z,-1.41
2023-03-01T01:22:48.157Z,-1.41
2023-03-01T01:23:48.107Z,-1.39
2023-03-01T01:24:48.123Z,-1.34
2023-03-01T01:25:48.088Z,-1.33
2023-03-01T01:26:48.079Z,-1.31
2023-03-01T01:27:48.076Z,-1.33
2023-03-01T01:28:48.049Z,-1.31
2023-03-01T01:29:48.034Z,-1.33
2023-03-01T01:30:48.070Z,-1.37
2023-03-01T01:31:48.089Z,-1.36
2023-03-01T01:32:48.016Z,-1.36
2023-03-01T01:33:47.990Z,-1.33
2023-03-01T01:34:47.979Z,-1.34
2023-03-01T01:35:47.975Z,-1.36
2023-03-01T01:36:47.961Z,-1.40
2023-03-01T01:37:47.955Z,-1.47
2023-03-01T01:38:47.944Z,-1.51
2023-03-01T01:39:47.908Z,-1.57
2023-03-01T01:40:47.908Z,-1.61
2023-03-01T01:41:47.908Z,-1.62
2023-03-01T01:42:47.906Z,-1.67
2023-03-01T01:43:47.866Z,-1.64
2023-03-01T01:44:47.856Z,-1.59
2023-03-01T01:45:47.844Z,-1.49
2023-03-01T01:46:47.881Z,-1.43
2023-03-01T01:47:47.897Z,-1.39
2023-03-01T01:48:47.812Z,-1.39
2023-03-01T01:49:47.796Z,-1.36
2023-03-01T01:50:47.784Z,-1.39
2023-03-01T01:51:47.799Z,-1.36
2023-03-01T01:52:47.759Z,-1.36
2023-03-01T01:53:47.745Z,-1.36
2023-03-01T01:54:47.778Z,-1.40
2023-03-01T01:55:47.721Z,-1.40
2023-03-01T01:56:47.730Z,-1.40
2023-03-01T01:57:47.692Z,-1.40
2023-03-01T01:58:47.688Z,-1.37
2023-03-01T01:59:47.680Z,-1.37
2023-03-01T02:00:47.668Z,-1.43
2023-03-01T02:01:47.692Z,-1.43
2023-03-01T02:02:47.836Z,-1.46
2023-03-01T02:03:47.679Z,-1.43
2023-03-01T02:04:47.613Z,-1.40
2023-03-01T02:05:54.740Z,-1.37
2023-03-01T02:06:47.858Z,-1.34
2023-03-01T02:07:47.591Z,-1.36
2023-03-01T02:08:47.563Z,-1.34
2023-03-01T02:09:47.555Z,-1.31
2023-03-01T02:10:47.577Z,-1.28
2023-03-01T02:11:47.521Z,-1.34
2023-03-01T02:12:47.532Z,-1.36
2023-03-01T02:13:47.498Z,-1.40
2023-03-01T02:14:47.495Z,-1.40
2023-03-01T02:15:47.544Z,-1.34
2023-03-01T02:16:47.468Z,-1.34
2023-03-01T02:17:47.655Z,-1.34
2023-03-01T02:18:47.442Z,-1.31
2023-03-01T02:19:47.424Z,-1.28
2023-03-01T02:20:47.419Z,-1.29
2023-03-01T02:21:47.402Z,-1.28
2023-03-01T02:22:47.418Z,-1.31
2023-03-01T02:23:47.381Z,-1.34
2023-03-01T02:24:47.395Z,-1.43
2023-03-01T02:25:47.363Z,-1.46
2023-03-01T02:26:47.346Z,-1.46
2023-03-01T02:27:47.339Z,-1.52
2023-03-01T02:28:47.361Z,-1.57
2023-03-01T02:29:47.314Z,-1.62
2023-03-01T02:30:47.294Z,-1.72
2023-03-01T02:31:47.457Z,-1.78
2023-03-01T02:32:47.318Z,-1.80
2023-03-01T02:33:47.264Z,-1.86
2023-03-01T02:34:47.272Z,-1.88
2023-03-01T02:35:47.295Z,-1.88
2023-03-01T02:36:47.231Z,-1.86
2023-03-01T02:37:47.229Z,-1.90
2023-03-01T02:38:47.201Z,-1.98
2023-03-01T02:39:47.191Z,-1.97
2023-03-01T02:40:47.178Z,-1.96
2023-03-01T02:41:47.171Z,-1.94
2023-03-01T02:42:47.156Z,-1.88
2023-03-01T02:43:47.196Z,-1.78
2023-03-01T02:44:47.127Z,-1.69
2023-03-01T02:45:47.110Z,-1.55
2023-03-01T02:46:47.148Z,-1.58
2023-03-01T02:47:47.116Z,-1.49
2023-03-01T02:48:47.108Z,-1.46
2023-03-01T02:49:47.062Z,-1.44
2023-03-01T02:50:47.057Z,-1.44
2023-03-01T02:51:47.038Z,-1.47
2023-03-01T02:52:47.039Z,-1.52
2023-03-01T02:53:47.044Z,-1.58
2023-03-01T02:54:47.008Z,-1.58
2023-03-01T02:55:46.986Z,-1.54
2023-03-01T02:56:46.977Z,-1.51
2023-03-01T02:57:47.357Z,-1.46
2023-03-01T02:58:46.954Z,-1.44
2023-03-01T02:59:46.952Z,-1.46
2023-03-01T03:00:46.955Z,-1.49
2023-03-01T03:01:47.440Z,-1.52
2023-03-01T03:02:46.922Z,-1.55
2023-03-01T03:03:46.963Z,-1.61
2023-03-01T03:04:46.878Z,-1.69
2023-03-01T03:05:46.879Z,-1.70
2023-03-01T03:06:46.862Z,-1.73
2023-03-01T03:07:46.838Z,-1.78
2023-03-01T03:08:46.865Z,-1.78
2023-03-01T03:09:46.813Z,-1.80
2023-03-01T03:10:46.809Z,-1.79
2023-03-01T03:11:46.799Z,-1.76
2023-03-01T03:12:46.780Z,-1.76
2023-03-01T03:13:46.789Z,-1.72
2023-03-01T03:14:46.766Z,-1.73
2023-03-01T03:15:46.751Z,-1.72
2023-03-01T03:16:46.744Z,-1.72
2023-03-01T03:17:46.741Z,-1.72
2023-03-01T03:18:46.724Z,-1.67
2023-03-01T03:19:46.692Z,-1.59
2023-03-01T03:20:46.686Z,-1.54
2023-03-01T03:21:46.687Z,-1.46
2023-03-01T03:22:46.667Z,-1.44
2023-03-01T03:23:46.685Z,-1.46
2023-03-01T03:24:46.656Z,-1.51
2023-03-01T03:25:46.658Z,-1.52
2023-03-01T03:26:46.609Z,-1.55
2023-03-01T03:27:46.607Z,-1.55
2023-03-01T03:28:46.598Z,-1.59
2023-03-01T03:29:46.574Z,-1.65
2023-03-01T03:30:46.592Z,-1.69
2023-03-01T03:31:46.769Z,-1.70
2023-03-01T03:32:46.529Z,-1.72
2023-03-01T03:33:46.545Z,-1.75
2023-03-01T03:34:46.509Z,-1.76
2023-03-01T03:35:46.555Z,-1.70
2023-03-01T03:36:46.499Z,-1.73
2023-03-01T03:37:46.475Z,-1.67
2023-03-01T03:38:46.481Z,-1.70
2023-03-01T03:39:46.502Z,-1.70
2023-03-01T03:40:46.432Z,-1.73
2023-03-01T03:41:46.425Z,-1.75
2023-03-01T03:42:46.426Z,-1.80
2023-03-01T03:43:46.423Z,-1.83
2023-03-01T03:44:46.401Z,-1.90
2023-03-01T03:45:46.422Z,-1.96
2023-03-01T03:46:46.373Z,-1.98
2023-03-01T03:47:46.366Z,-2.00
2023-03-01T03:48:46.356Z,-1.96
2023-03-01T03:49:46.330Z,-1.96
2023-03-01T03:50:46.306Z,-1.93
2023-03-01T03:51:46.299Z,-1.97
2023-03-01T03:52:46.281Z,-1.98
2023-03-01T03:53:46.318Z,-1.98
2023-03-01T03:54:46.265Z,-1.96
2023-03-01T03:55:46.285Z,-1.93
2023-03-01T03:56:46.234Z,-1.96
2023-03-01T03:57:46.255Z,-1.97
2023-03-01T03:58:46.256Z,-2.00
2023-03-01T03:59:46.210Z,-2.00
2023-03-01T04:00:46.189Z,-2.04
2023-03-01T04:01:46.225Z,-2.06
2023-03-01T04:02:46.368Z,-1.98
2023-03-01T04:03:46.180Z,-1.86
2023-03-01T04:04:46.153Z,-1.83
2023-03-01T04:05:46.148Z,-1.76
2023-03-01T04:06:46.125Z,-1.70
2023-03-01T04:07:46.117Z,-1.70
2023-03-01T04:08:46.133Z,-1.69
2023-03-01T04:09:46.093Z,-1.64
2023-03-01T04:10:46.067Z,-1.64
2023-03-01T04:11:46.069Z,-1.54
2023-03-01T04:12:46.057Z,-1.51
2023-03-01T04:13:46.044Z,-1.51
2023-03-01T04:14:47.956Z,-1.54
2023-03-01T04:15:46.018Z,-1.58
2023-03-01T04:16:46.038Z,-1.64
2023-03-01T04:17:46.006Z,-1.65
2023-03-01T04:18:45.976Z,-1.65
2023-03-01T04:19:45.972Z,-1.58
2023-03-01T04:20:45.952Z,-1.58
2023-03-01T04:21:45.943Z,-1.55
2023-03-01T04:22:45.945Z,-1.49
2023-03-01T04:23:45.916Z,-1.47
2023-03-01T04:24:45.898Z,-1.51
2023-03-01T04:25:45.895Z,-1.54
2023-03-01T04:26:45.885Z,-1.61
2023-03-01T04:27:45.907Z,-1.64
2023-03-01T04:28:45.863Z,-1.69
2023-03-01T04:29:45.861Z,-1.67
2023-03-01T04:30:45.831Z,-1.61
2023-03-01T04:31:45.883Z,-1.59
2023-03-01T04:32:45.860Z,-1.61
2023-03-01T04:33:45.831Z,-1.58
2023-03-01T04:34:45.789Z,-1.59
2023-03-01T04:35:45.914Z,-1.64
2023-03-01T04:36:45.896Z,-1.69
2023-03-01T04:37:45.763Z,-1.72
2023-03-01T04:38:45.760Z,-1.70
2023-03-01T04:39:45.719Z,-1.76
2023-03-01T04:40:45.732Z,-1.79
2023-03-01T04:41:45.710Z,-1.79
2023-03-01T04:42:45.687Z,-1.82
2023-03-01T04:43:45.716Z,-1.80
2023-03-01T04:44:45.675Z,-1.79
2023-03-01T04:45:45.710Z,-1.76
2023-03-01T04:46:45.657Z,-1.82
2023-03-01T04:47:45.631Z,-1.82
2023-03-01T04:48:45.640Z,-1.88
2023-03-01T04:49:45.609Z,-1.94
2023-03-01T04:50:45.587Z,-2.01
2023-03-01T04:51:45.579Z,-2.00
2023-03-01T04:52:45.562Z,-1.98
2023-03-01T04:53:45.629Z,-1.93
2023-03-01T04:54:45.675Z,-1.90
2023-03-01T04:55:45.531Z,-1.86
2023-03-01T04:56:45.521Z,-1.82
2023-03-01T04:57:45.502Z,-1.80
2023-03-01T04:58:45.528Z,-1.85
2023-03-01T04:59:45.496Z,-1.88
2023-03-01T05:00:45.474Z,-1.88
2023-03-01T05:01:45.463Z,-1.88
2023-03-01T05:02:45.492Z,-1.85
2023-03-01T05:03:45.444Z,-1.80
2023-03-01T05:04:45.510Z,-1.80
2023-03-01T05:05:45.414Z,-1.79
2023-03-01T05:06:45.396Z,-1.78
2023-03-01T05:07:45.378Z,-1.76
2023-03-01T05:08:45.401Z,-1.79
2023-03-01T05:09:45.352Z,-1.80
2023-03-01T05:10:45.334Z,-1.78
2023-03-01T05:11:45.362Z,-1.67
2023-03-01T05:12:45.317Z,-1.58
2023-03-01T05:13:45.328Z,-1.57
2023-03-01T05:14:46.093Z,-1.58
2023-03-01T05:15:45.339Z,-1.59
2023-03-01T05:16:45.268Z,-1.69
2023-03-01T05:17:45.436Z,-1.70
2023-03-01T05:18:45.284Z,-1.73
2023-03-01T05:19:45.227Z,-1.76
2023-03-01T05:20:45.210Z,-1.78
2023-03-01T05:21:45.206Z,-1.78
2023-03-01T05:22:45.207Z,-1.75
2023-03-01T05:23:45.205Z,-1.70
2023-03-01T05:24:45.165Z,-1.67
2023-03-01T05:25:45.234Z,-1.62
2023-03-01T05:26:45.146Z,-1.61
2023-03-01T05:27:45.146Z,-1.59
2023-03-01T05:28:45.121Z,-1.67
2023-03-01T05:29:45.128Z,-1.70
2023-03-01T05:30:45.122Z,-1.73
2023-03-01T05:31:45.101Z,-1.75
2023-03-01T05:32:45.103Z,-1.76
2023-03-01T05:33:45.094Z,-1.73
2023-03-01T05:34:45.043Z,-1.76
2023-03-01T05:35:45.077Z,-1.76
2023-03-01T05:36:45.028Z,-1.80
2023-03-01T05:37:45.004Z,-1.83
2023-03-01T05:38:45.003Z,-1.90
2023-03-01T05:39:44.979Z,-1.93
2023-03-01T05:40:44.930Z,-1.97
2023-03-01T05:41:44.967Z,-2.00
2023-03-01T05:42:44.942Z,-2.04
2023-03-01T05:43:44.975Z,-1.98
2023-03-01T05:44:44.878Z,-1.94
2023-03-01T05:45:44.900Z,-1.93
2023-03-01T05:46:44.848Z,-1.93
2023-03-01T05:47:44.880Z,-1.90
2023-03-01T05:48:44.928Z,-1.98
2023-03-01T05:49:44.850Z,-2.01
2023-03-01T05:50:44.822Z,-1.98
2023-03-01T05:51:44.787Z,-2.00
2023-03-01T05:52:44.757Z,-1.97
2023-03-01T05:53:44.806Z,-1.91
2023-03-01T05:54:44.740Z,-1.93
2023-03-01T05:55:44.815Z,-1.90
2023-03-01T05:56:44.722Z,-1.94
2023-03-01T05:57:44.742Z,-1.93
2023-03-01T05:58:44.735Z,-1.94
2023-03-01T05:59:44.687Z,-1.96
2023-03-01T06:00:44.692Z,-2.03
2023-03-01T06:01:44.820Z,-2.08
2023-03-01T06:02:44.635Z,-2.15
2023-03-01T06:03:44.667Z,-2.21
2023-03-01T06:04:44.845Z,-2.22
2023-03-01T06:05:44.682Z,-2.09
2023-03-01T06:06:44.593Z,-2.06
2023-03-01T06:07:44.585Z,-2.09
2023-03-01T06:08:44.591Z,-2.08
2023-03-01T06:09:44.554Z,-2.11
2023-03-01T06:10:44.539Z,-2.14
2023-03-01T06:11:44.537Z,-2.12
2023-03-01T06:12:44.529Z,-2.15
2023-03-01T06:13:44.517Z,-2.16
2023-03-01T06:14:44.498Z,-2.12
2023-03-01T06:15:44.511Z,-2.11
2023-03-01T06:16:44.465Z,-2.14
2023-03-01T06:17:44.474Z,-2.14
2023-03-01T06:18:44.470Z,-2.14
2023-03-01T06:19:44.432Z,-2.15
2023-03-01T06:20:44.433Z,-2.11
2023-03-01T06:21:44.406Z,-2.04
2023-03-01T06:22:44.399Z,-2.00
2023-03-01T06:23:44.415Z,-1.96
2023-03-01T06:24:44.375Z,-1.97
2023-03-01T06:25:44.418Z,-1.96
2023-03-01T06:26:44.347Z,-1.97
2023-03-01T06:27:44.337Z,-1.97
2023-03-01T06:28:44.345Z,-2.01
2023-03-01T06:29:44.348Z,-2.04
2023-03-01T06:30:44.309Z,-2.08
2023-03-01T06:31:44.288Z,-2.08
2023-03-01T06:32:44.319Z,-2.09
2023-03-01T06:33:44.286Z,-2.04
2023-03-01T06:34:44.252Z,-2.03
2023-03-01T06:35:44.290Z,-2.08
2023-03-01T06:36:44.264Z,-2.11
2023-03-01T06:37:44.227Z,-2.09
2023-03-01T06:38:44.218Z,-2.12
2023-03-01T06:39:44.190Z,-2.12
2023-03-01T06:40:44.218Z,-2.11
2023-03-01T06:41:44.223Z,-2.11
2023-03-01T06:42:44.159Z,-2.08
2023-03-01T06:43:44.164Z,-2.04
2023-03-01T06:44:44.139Z,-2.11
2023-03-01T06:45:44.127Z,-2.11
2023-03-01T06:46:44.131Z,-2.06
2023-03-01T06:47:44.112Z,-1.97
2023-03-01T06:48:44.229Z,-1.90
2023-03-01T06:49:44.091Z,-1.86
2023-03-01T06:50:44.082Z,-1.78
2023-03-01T06:51:44.054Z,-1.75
2023-03-01T06:52:44.088Z,-1.75
2023-03-01T06:53:44.468Z,-1.73
2023-03-01T06:54:44.016Z,-1.65
2023-03-01T06:55:44.027Z,-1.55
2023-03-01T06:56:43.993Z,-1.46
2023-03-01T06:57:43.967Z,-1.36
2023-03-01T06:58:44.302Z,-1.31
2023-03-01T06:59:43.962Z,-1.26
2023-03-01T07:00:43.935Z,-1.25
2023-03-01T07:01:43.927Z,-1.21
2023-03-01T07:02:43.960Z,-1.21
2023-03-01T07:03:44.337Z,-1.18
2023-03-01T07:04:43.902Z,-1.18
2023-03-01T07:05:43.865Z,-1.15
2023-03-01T07:06:43.851Z,-1.11
2023-03-01T07:07:43.884Z,-1.08
2023-03-01T07:08:43.860Z,-1.07
2023-03-01T07:09:43.846Z,-1.05
2023-03-01T07:10:43.802Z,-1.01
2023-03-01T07:11:43.806Z,-0.86
2023-03-01T07:12:43.780Z,-0.71
2023-03-01T07:13:43.788Z,-0.55
2023-03-01T07:14:43.777Z,-0.43
2023-03-01T07:15:43.768Z,-0.35
2023-03-01T07:16:43.724Z,-0.28
2023-03-01T07:17:43.734Z,-0.17
2023-03-01T07:18:43.709Z,-0.14
2023-03-01T07:19:43.717Z,-0.13
2023-03-01T07:20:43.684Z,-0.13
2023-03-01T07:21:43.668Z,-0.13
2023-03-01T07:22:43.669Z,-0.10
2023-03-01T07:23:43.656Z,-0.06
2023-03-01T07:24:43.649Z,-0.03
2023-03-01T07:25:43.624Z,-0.03
2023-03-01T07:26:43.632Z,0.00
2023-03-01T07:27:43.597Z,0.02
2023-03-01T07:28:43.602Z,0.04
2023-03-01T07:29:43.717Z,0.09
2023-03-01T07:30:43.574Z,0.15
2023-03-01T07:31:43.564Z,0.18
2023-03-01T07:32:43.653Z,0.22
2023-03-01T07:33:43.530Z,0.32
2023-03-01T07:34:43.535Z,0.43
2023-03-01T07:35:43.545Z,0.56
2023-03-01T07:36:43.497Z,0.63
2023-03-01T07:37:43.498Z,0.70
2023-03-01T07:38:43.470Z,0.76
2023-03-01T07:39:43.477Z,0.99
2023-03-01T07:40:43.524Z,1.52
2023-03-01T07:41:43.536Z,2.00
2023-03-01T07:42:43.411Z,2.14
2023-03-01T07:43:43.436Z,2.14
2023-03-01T07:44:43.441Z,2.03
2023-03-01T07:45:43.418Z,1.89
2023-03-01T07:46:43.362Z,1.80
2023-03-01T07:47:43.349Z,1.71
2023-03-01T07:48:43.346Z,1.63
2023-03-01T07:49:43.333Z,1.57
2023-03-01T07:50:43.303Z,1.52
2023-03-01T07:51:43.460Z,1.48
2023-03-01T07:52:43.286Z,1.44
2023-03-01T07:53:43.267Z,1.39
2023-03-01T07:54:43.314Z,1.38
2023-03-01T07:55:43.244Z,1.38
2023-03-01T07:56:43.234Z,1.39
2023-03-01T07:57:43.225Z,1.41
2023-03-01T07:58:43.257Z,1.41
2023-03-01T07:59:43.207Z,1.44
2023-03-01T08:00:43.191Z,1.45
2023-03-01T08:01:43.237Z,1.46
2023-03-01T08:02:43.309Z,1.52
2023-03-01T08:03:43.179Z,1.62
2023-03-01T08:04:43.134Z,1.69
2023-03-01T08:05:43.127Z,1.75
2023-03-01T08:06:43.115Z,1.77
2023-03-01T08:07:43.093Z,1.82
2023-03-01T08:08:43.135Z,1.82
2023-03-01T08:09:43.083Z,1.80
2023-03-01T08:10:43.089Z,1.80
2023-03-01T08:11:43.138Z,1.84
2023-03-01T08:12:43.038Z,1.92
2023-03-01T08:13:43.049Z,1.92
2023-03-01T08:14:43.029Z,1.93
2023-03-01T08:15:43.002Z,1.95
2023-03-01T08:16:43.121Z,1.97
2023-03-01T08:17:42.961Z,1.97
2023-03-01T08:18:42.972Z,1.99
2023-03-01T08:19:42.935Z,2.01
2023-03-01T08:20:43.010Z,2.04
2023-03-01T08:21:42.917Z,2.10
2023-03-01T08:22:42.917Z,2.15
2023-03-01T08:23:42.921Z,2.24
2023-03-01T08:24:42.876Z,2.35
2023-03-01T08:25:42.868Z,2.51
2023-03-01T08:26:42.856Z,2.61
2023-03-01T08:27:42.868Z,2.71
2023-03-01T08:28:42.867Z,2.73
2023-03-01T08:29:42.815Z,2.78
2023-03-01T08:30:42.822Z,2.89
2023-03-01T08:31:42.821Z,2.97
2023-03-01T08:32:42.952Z,3.02
2023-03-01T08:33:42.771Z,3.09
2023-03-01T08:34:42.760Z,3.15
2023-03-01T08:35:42.801Z,3.18
2023-03-01T08:36:42.734Z,3.17
2023-03-01T08:37:42.718Z,3.20
2023-03-01T08:38:42.749Z,3.17
2023-03-01T08:39:42.738Z,3.26
2023-03-01T08:40:42.676Z,3.51
2023-03-01T08:41:42.659Z,3.85
2023-03-01T08:42:42.706Z,4.27
2023-03-01T08:43:42.672Z,4.89
2023-03-01T08:44:42.632Z,5.47
2023-03-01T08:45:42.666Z,5.69
2023-03-01T08:46:42.621Z,5.85
2023-03-01T08:47:42.592Z,6.15
2023-03-01T08:48:42.620Z,6.28
2023-03-01T08:49:42.559Z,6.47
2023-03-01T08:50:42.573Z,6.89
2023-03-01T08:51:42.546Z,7.31
2023-03-01T08:52:42.564Z,7.54
2023-03-01T08:53:42.505Z,7.78
2023-03-01T08:54:42.500Z,7.98
2023-03-01T08:55:42.516Z,7.76
2023-03-01T08:56:42.486Z,7.77
2023-03-01T08:57:42.471Z,7.78
2023-03-01T08:58:42.450Z,7.84
2023-03-01T08:59:42.457Z,7.76
2023-03-01T09:00:42.453Z,7.78
2023-03-01T09:01:42.419Z,7.86
2023-03-01T09:02:42.413Z,7.64
2023-03-01T09:03:42.404Z,7.91
2023-03-01T09:04:42.375Z,7.91
2023-03-01T09:05:42.396Z,7.76
2023-03-01T09:06:42.352Z,7.77
2023-03-01T09:07:42.341Z,8.02
2023-03-01T09:08:42.322Z,8.16
2023-03-01T09:09:42.315Z,8.09
2023-03-01T09:10:42.352Z,8.17
2023-03-01T09:11:42.284Z,7.99
2023-03-01T09:12:42.282Z,7.71
2023-03-01T09:13:44.261Z,7.83
2023-03-01T09:14:42.318Z,7.91
2023-03-01T09:15:42.224Z,8.16
2023-03-01T09:16:42.286Z,8.31
2023-03-01T09:17:42.199Z,8.55
2023-03-01T09:18:42.227Z,8.55
2023-03-01T09:19:42.210Z,8.50
2023-03-01T09:20:42.184Z,8.55
2023-03-01T09:21:42.154Z,8.80
2023-03-01T09:22:42.144Z,8.83
2023-03-01T09:23:42.562Z,8.86
2023-03-01T09:24:42.131Z,9.14
2023-03-01T09:25:42.102Z,9.18
2023-03-01T09:26:42.105Z,8.93
2023-03-01T09:27:42.142Z,8.93
2023-03-01T09:28:42.072Z,9.08
2023-03-01T09:29:42.057Z,9.15
2023-03-01T09:30:42.098Z,9.14
2023-03-01T09:31:42.032Z,9.30
2023-03-01T09:32:42.017Z,9.34
2023-03-01T09:33:42.030Z,9.24
2023-03-01T09:34:41.980Z,9.19
2023-03-01T09:35:41.974Z,9.34
2023-03-01T09:36:41.995Z,9.11
2023-03-01T09:37:41.938Z,8.74
2023-03-01T09:38:41.939Z,8.60
2023-03-01T09:39:41.929Z,8.89
2023-03-01T09:40:41.894Z,9.09
2023-03-01T09:41:41.884Z,9.37
2023-03-01T09:42:41.880Z,9.54
2023-03-01T09:44:40.848Z,9.16
2023-03-01T09:45:41.830Z,9.52
2023-03-01T09:46:41.817Z,9.54
2023-03-01T09:47:41.801Z,9.52
2023-03-01T09:48:41.815Z,9.42
2023-03-01T09:49:41.779Z,9.14
2023-03-01T09:50:41.770Z,9.27
2023-03-01T09:51:41.765Z,9.34
2023-03-01T09:52:41.791Z,9.57
2023-03-01T09:53:41.721Z,9.37
2023-03-01T09:54:41.715Z,9.55
2023-03-01T09:55:41.717Z,9.59
2023-03-01T09:56:41.704Z,9.62
2023-03-01T09:57:41.665Z,9.55
2023-03-01T09:58:41.695Z,9.52
2023-03-01T09:59:41.653Z,9.62
2023-03-01T10:00:41.640Z,10.01
2023-03-01T10:01:41.622Z,10.03
2023-03-01T10:02:41.625Z,10.02
2023-03-01T10:03:41.623Z,10.06
2023-03-01T10:04:41.601Z,9.85
2023-03-01T10:05:41.560Z,9.80
2023-03-01T10:06:41.556Z,9.84
2023-03-01T10:07:41.536Z,9.77
2023-03-01T10:08:41.544Z,9.83
2023-03-01T10:09:41.515Z,9.91
2023-03-01T10:10:41.502Z,10.14
2023-03-01T10:11:41.812Z,10.41
2023-03-01T10:12:41.494Z,10.31
2023-03-01T10:13:41.484Z,10.49
2023-03-01T10:14:41.479Z,10.30
2023-03-01T10:15:41.706Z,10.10
2023-03-01T10:16:41.415Z,10.06
2023-03-01T10:17:41.422Z,10.17
2023-03-01T10:18:41.410Z,9.96
2023-03-01T10:19:41.380Z,9.83
2023-03-01T10:20:41.368Z,9.90
2023-03-01T10:21:41.348Z,9.87
2023-03-01T10:22:41.394Z,10.08
2023-03-01T10:23:41.321Z,10.17
2023-03-01T10:24:41.319Z,10.45
2023-03-01T10:25:43.424Z,10.52
2023-03-01T10:26:41.284Z,10.70
2023-03-01T10:27:41.334Z,10.46
2023-03-01T10:28:41.271Z,10.06
2023-03-01T10:29:41.251Z,9.98
2023-03-01T10:30:41.241Z,10.05
2023-03-01T10:31:41.247Z,10.39
2023-03-01T10:32:41.238Z,10.48
2023-03-01T10:33:41.236Z,10.61
2023-03-01T10:34:41.214Z,10.49
2023-03-01T10:35:41.179Z,10.20
2023-03-01T10:36:41.170Z,10.14
2023-03-01T10:37:41.139Z,10.05
2023-03-01T10:38:41.139Z,10.21
2023-03-01T10:39:41.120Z,10.23
2023-03-01T10:40:41.098Z,9.90
2023-03-01T10:41:41.120Z,9.50
2023-03-01T10:42:41.095Z,9.24
2023-03-01T10:43:41.072Z,8.88
2023-03-01T10:44:41.073Z,8.85
2023-03-01T10:45:41.030Z,8.68
2023-03-01T10:46:41.057Z,8.85
2023-03-01T10:47:41.005Z,9.23
2023-03-01T10:48:41.019Z,9.55
2023-03-01T10:49:40.977Z,9.75
2023-03-01T10:50:42.325Z,9.87
2023-03-01T10:51:40.963Z,10.36
2023-03-01T10:52:40.942Z,10.36
2023-03-01T10:53:40.965Z,10.27
2023-03-01T10:54:40.926Z,10.49
2023-03-01T10:55:40.907Z,10.41
2023-03-01T10:56:40.895Z,10.42
2023-03-01T10:57:42.654Z,10.09
2023-03-01T10:58:40.944Z,9.72
2023-03-01T10:59:40.850Z,9.88
2023-03-01T11:00:40.837Z,10.01
2023-03-01T11:01:40.848Z,10.28
2023-03-01T11:02:40.905Z,10.23
2023-03-01T11:03:40.801Z,10.52
2023-03-01T11:04:40.852Z,10.83
2023-03-01T11:05:40.766Z,10.80
2023-03-01T11:06:40.763Z,11.11
2023-03-01T11:07:40.750Z,11.16
2023-03-01T11:08:40.757Z,11.28
2023-03-01T11:09:40.720Z,10.98
2023-03-01T11:10:40.771Z,10.62
2023-03-01T11:11:40.683Z,10.67
2023-03-01T11:12:40.714Z,10.85
2023-03-01T11:13:40.675Z,11.15
2023-03-01T11:14:40.675Z,11.55
2023-03-01T11:15:40.652Z,11.67
2023-03-01T11:16:40.628Z,11.58
2023-03-01T11:17:53.589Z,11.82
2023-03-01T11:18:48.197Z,12.08
2023-03-01T11:19:40.592Z,11.61
2023-03-01T11:20:40.597Z,11.08
2023-03-01T11:21:40.560Z,10.70
2023-03-01T11:22:40.566Z,10.72
2023-03-01T11:23:40.590Z,10.94
2023-03-01T11:24:42.374Z,10.93
2023-03-01T11:25:40.515Z,11.04
2023-03-01T11:26:40.524Z,11.19
2023-03-01T11:27:40.489Z,11.38
2023-03-01T11:28:40.487Z,11.64
2023-03-01T11:29:48.606Z,11.84
2023-03-01T11:30:40.466Z,11.76
2023-03-01T11:31:46.543Z,11.71
2023-03-01T11:32:40.537Z,11.88
2023-03-01T11:33:40.428Z,11.67
2023-03-01T11:34:40.416Z,11.67
2023-03-01T11:35:40.745Z,11.58
2023-03-01T11:36:40.383Z,11.70
2023-03-01T11:37:40.350Z,12.15
2023-03-01T11:38:40.367Z,12.18
2023-03-01T11:39:40.325Z,12.00
2023-03-01T11:40:40.357Z,12.10
2023-03-01T11:41:40.304Z,11.99
2023-03-01T11:42:40.347Z,11.88
2023-03-01T11:43:40.265Z,11.76
2023-03-01T11:44:40.324Z,11.30
2023-03-01T11:45:40.297Z,11.37
2023-03-01T11:46:40.348Z,11.55
2023-03-01T11:47:40.398Z,11.88
2023-03-01T11:48:49.391Z,12.04
2023-03-01T11:49:40.574Z,11.88
2023-03-01T11:50:40.182Z,11.97
2023-03-01T11:51:40.173Z,12.55
2023-03-01T11:52:40.152Z,12.93
2023-03-01T11:53:40.151Z,12.72
2023-03-01T11:54:40.203Z,12.08
2023-03-01T11:55:40.105Z,12.44
2023-03-01T11:56:40.124Z,12.62
2023-03-01T11:57:43.938Z,12.54
2023-03-01T11:58:40.078Z,12.48
2023-03-01T11:59:40.075Z,12.08
2023-03-01T12:00:40.051Z,11.69
2023-03-01T12:01:42.441Z,12.14
2023-03-01T12:02:40.029Z,12.55
2023-03-01T12:03:40.038Z,12.80
2023-03-01T12:04:40.092Z,12.86
2023-03-01T12:05:39.987Z,12.91
2023-03-01T12:06:39.964Z,13.11
2023-03-01T12:07:39.967Z,13.05
2023-03-01T12:08:39.969Z,12.95
2023-03-01T12:09:39.948Z,13.06
2023-03-01T12:10:39.943Z,12.86
2023-03-01T12:11:40.453Z,12.36
2023-03-01T12:12:40.091Z,12.48
2023-03-01T12:13:39.889Z,12.43
2023-03-01T12:14:39.883Z,12.23
2023-03-01T12:15:39.857Z,12.38
2023-03-01T12:16:40.150Z,12.07
2023-03-01T12:17:39.849Z,12.10
2023-03-01T12:18:39.834Z,12.40
2023-03-01T12:19:39.841Z,12.13
2023-03-01T12:20:39.809Z,12.28
2023-03-01T12:21:39.774Z,12.83
2023-03-01T12:22:39.783Z,12.87
2023-03-01T12:23:39.768Z,12.73
2023-03-01T12:24:39.857Z,12.59
2023-03-01T12:25:39.725Z,12.07
2023-03-01T12:26:39.714Z,11.69
2023-03-01T12:27:39.709Z,11.71
2023-03-01T12:28:39.958Z,12.22
2023-03-01T12:29:39.677Z,12.03
2023-03-01T12:30:39.659Z,11.28
2023-03-01T12:31:39.767Z,11.38
2023-03-01T12:32:39.798Z,11.82
2023-03-01T12:33:39.737Z,11.74
2023-03-01T12:34:40.130Z,12.03
2023-03-01T12:35:39.603Z,12.22
2023-03-01T12:36:39.586Z,12.32
2023-03-01T12:37:39.604Z,12.50
2023-03-01T12:38:39.552Z,12.53
2023-03-01T12:39:40.118Z,12.48
2023-03-01T12:40:39.533Z,12.47
2023-03-01T12:41:39.518Z,12.53
2023-03-01T12:42:39.510Z,12.36
2023-03-01T12:43:39.516Z,12.17
2023-03-01T12:44:39.483Z,12.48
2023-03-01T12:45:39.480Z,12.66
2023-03-01T12:46:39.450Z,12.83
2023-03-01T12:47:39.439Z,12.77
2023-03-01T12:48:39.441Z,12.38
2023-03-01T12:49:39.489Z,12.76
2023-03-01T12:50:39.412Z,13.01
2023-03-01T12:51:39.411Z,13.26
2023-03-01T12:52:39.459Z,12.88
2023-03-01T12:53:39.441Z,12.86
2023-03-01T12:54:39.416Z,12.33
2023-03-01T12:55:39.351Z,12.03
2023-03-01T12:56:39.438Z,11.64
2023-03-01T12:57:39.320Z,11.51
2023-03-01T12:58:49.086Z,11.70
2023-03-01T12:59:39.290Z,11.77